sensor_id;sensor_type;location;lat;lon;timestamp;P1;durP1;ratioP1;P2;durP2;ratioP2
3941;SDS011;1985;48.592;8.850;2023-04-25T00:00:27;9.70;;;1.90;;
3941;SDS011;1985;48.592;8.850;2023-04-25T00:02:53;9.05;;;2.08;;
3941;SDS011;1985;48.592;8.850;2023-04-25T00:05:21;9.65;;;1.92;;
3941;SDS011;1985;48.592;8.850;2023-04-25T00:07:48;11.70;;;2.50;;
3941;SDS011;1985;48.592;8.850;2023-04-25T00:10:14;8.50;;;1.90;;
3941;SDS011;1985;48.592;8.850;2023-04-25T00:12:40;8.50;;;1.90;;
3941;SDS011;1985;48.592;8.850;2023-04-25T00:15:06;9.10;;;2.10;;
3941;SDS011;1985;48.592;8.850;2023-04-25T00:17:32;9.90;;;2.38;;
3941;SDS011;1985;48.592;8.850;2023-04-25T00:19:59;8.25;;;1.70;;
3941;SDS011;1985;48.592;8.850;2023-04-25T00:22:25;8.77;;;1.60;;
3941;SDS011;1985;48.592;8.850;2023-04-25T00:24:51;13.10;;;2.30;;
3941;SDS011;1985;48.592;8.850;2023-04-25T00:27:18;9.60;;;1.90;;
3941;SDS011;1985;48.592;8.850;2023-04-25T00:29:43;8.60;;;1.80;;
3941;SDS011;1985;48.592;8.850;2023-04-25T00:32:09;9.20;;;2.10;;
3941;SDS011;1985;48.592;8.850;2023-04-25T00:34:35;8.45;;;1.90;;
3941;SDS011;1985;48.592;8.850;2023-04-25T00:37:01;8.90;;;2.00;;
3941;SDS011;1985;48.592;8.850;2023-04-25T00:39:27;11.30;;;1.90;;
3941;SDS011;1985;48.592;8.850;2023-04-25T00:41:54;8.50;;;1.90;;
3941;SDS011;1985;48.592;8.850;2023-04-25T00:44:19;8.50;;;2.05;;
3941;SDS011;1985;48.592;8.850;2023-04-25T00:46:46;8.85;;;2.03;;
3941;SDS011;1985;48.592;8.850;2023-04-25T00:49:13;8.50;;;2.00;;
3941;SDS011;1985;48.592;8.850;2023-04-25T00:51:41;8.18;;;1.80;;
3941;SDS011;1985;48.592;8.850;2023-04-25T00:54:09;9.07;;;1.70;;
3941;SDS011;1985;48.592;8.850;2023-04-25T00:56:39;9.35;;;2.30;;
3941;SDS011;1985;48.592;8.850;2023-04-25T00:59:05;8.80;;;1.90;;
3941;SDS011;1985;48.592;8.850;2023-04-25T01:01:31;9.15;;;1.90;;
3941;SDS011;1985;48.592;8.850;2023-04-25T01:03:58;9.57;;;2.30;;
3941;SDS011;1985;48.592;8.850;2023-04-25T01:06:24;11.15;;;2.80;;
3941;SDS011;1985;48.592;8.850;2023-04-25T01:08:50;10.02;;;2.15;;
3941;SDS011;1985;48.592;8.850;2023-04-25T01:11:17;10.45;;;2.05;;
3941;SDS011;1985;48.592;8.850;2023-04-25T01:13:42;9.77;;;2.40;;
3941;SDS011;1985;48.592;8.850;2023-04-25T01:16:08;9.20;;;2.20;;
3941;SDS011;1985;48.592;8.850;2023-04-25T01:18:34;9.10;;;2.47;;
3941;SDS011;1985;48.592;8.850;2023-04-25T01:21:04;10.10;;;2.30;;
3941;SDS011;1985;48.592;8.850;2023-04-25T01:23:33;8.70;;;1.98;;
3941;SDS011;1985;48.592;8.850;2023-04-25T01:25:59;9.88;;;2.38;;
3941;SDS011;1985;48.592;8.850;2023-04-25T01:28:26;9.30;;;2.20;;
3941;SDS011;1985;48.592;8.850;2023-04-25T01:30:52;10.90;;;2.17;;
3941;SDS011;1985;48.592;8.850;2023-04-25T01:33:19;10.20;;;2.70;;
3941;SDS011;1985;48.592;8.850;2023-04-25T01:35:46;10.80;;;2.40;;
3941;SDS011;1985;48.592;8.850;2023-04-25T01:38:12;9.50;;;2.40;;
3941;SDS011;1985;48.592;8.850;2023-04-25T01:40:39;9.40;;;2.60;;
3941;SDS011;1985;48.592;8.850;2023-04-25T01:43:06;10.18;;;2.90;;
3941;SDS011;1985;48.592;8.850;2023-04-25T01:45:37;9.70;;;2.90;;
3941;SDS011;1985;48.592;8.850;2023-04-25T01:48:09;9.70;;;2.75;;
3941;SDS011;1985;48.592;8.850;2023-04-25T01:50:37;10.15;;;2.78;;
3941;SDS011;1985;48.592;8.850;2023-04-25T01:53:04;9.93;;;2.63;;
3941;SDS011;1985;48.592;8.850;2023-04-25T01:55:30;10.97;;;2.30;;
3941;SDS011;1985;48.592;8.850;2023-04-25T01:57:56;12.10;;;2.40;;
3941;SDS011;1985;48.592;8.850;2023-04-25T02:00:21;8.90;;;2.20;;
3941;SDS011;1985;48.592;8.850;2023-04-25T02:02:48;9.38;;;2.50;;
3941;SDS011;1985;48.592;8.850;2023-04-25T02:05:15;10.50;;;2.35;;
3941;SDS011;1985;48.592;8.850;2023-04-25T02:07:41;9.90;;;2.67;;
3941;SDS011;1985;48.592;8.850;2023-04-25T02:10:07;9.70;;;2.90;;
3941;SDS011;1985;48.592;8.850;2023-04-25T02:12:34;10.73;;;2.67;;
3941;SDS011;1985;48.592;8.850;2023-04-25T02:15:00;15.00;;;2.80;;
3941;SDS011;1985;48.592;8.850;2023-04-25T02:17:26;10.50;;;2.83;;
3941;SDS011;1985;48.592;8.850;2023-04-25T02:19:52;12.10;;;2.85;;
3941;SDS011;1985;48.592;8.850;2023-04-25T02:22:18;12.60;;;2.67;;
3941;SDS011;1985;48.592;8.850;2023-04-25T02:24:43;12.65;;;2.30;;
3941;SDS011;1985;48.592;8.850;2023-04-25T02:27:09;10.27;;;2.00;;
3941;SDS011;1985;48.592;8.850;2023-04-25T02:29:34;10.77;;;2.10;;
3941;SDS011;1985;48.592;8.850;2023-04-25T02:32:00;10.23;;;2.10;;
3941;SDS011;1985;48.592;8.850;2023-04-25T02:34:26;9.53;;;2.40;;
3941;SDS011;1985;48.592;8.850;2023-04-25T02:36:51;10.70;;;2.22;;
3941;SDS011;1985;48.592;8.850;2023-04-25T02:39:17;11.40;;;2.33;;
3941;SDS011;1985;48.592;8.850;2023-04-25T02:41:43;10.50;;;2.30;;
3941;SDS011;1985;48.592;8.850;2023-04-25T02:44:08;11.53;;;2.50;;
3941;SDS011;1985;48.592;8.850;2023-04-25T02:46:34;9.20;;;2.05;;
3941;SDS011;1985;48.592;8.850;2023-04-25T02:48:59;9.90;;;2.17;;
3941;SDS011;1985;48.592;8.850;2023-04-25T02:51:25;9.40;;;2.70;;
3941;SDS011;1985;48.592;8.850;2023-04-25T02:53:51;9.77;;;2.17;;
3941;SDS011;1985;48.592;8.850;2023-04-25T02:56:16;9.90;;;2.40;;
3941;SDS011;1985;48.592;8.850;2023-04-25T02:58:42;9.45;;;2.20;;
3941;SDS011;1985;48.592;8.850;2023-04-25T03:01:08;9.20;;;2.33;;
3941;SDS011;1985;48.592;8.850;2023-04-25T03:03:33;11.63;;;2.70;;
3941;SDS011;1985;48.592;8.850;2023-04-25T03:05:59;10.77;;;2.60;;
3941;SDS011;1985;48.592;8.850;2023-04-25T03:08:24;10.40;;;2.53;;
3941;SDS011;1985;48.592;8.850;2023-04-25T03:10:51;10.32;;;2.85;;
3941;SDS011;1985;48.592;8.850;2023-04-25T03:13:20;11.35;;;3.03;;
3941;SDS011;1985;48.592;8.850;2023-04-25T03:15:46;8.90;;;2.33;;
3941;SDS011;1985;48.592;8.850;2023-04-25T03:18:11;9.93;;;2.70;;
3941;SDS011;1985;48.592;8.850;2023-04-25T03:20:37;9.25;;;2.28;;
3941;SDS011;1985;48.592;8.850;2023-04-25T03:23:04;9.90;;;2.50;;
3941;SDS011;1985;48.592;8.850;2023-04-25T03:25:30;9.93;;;2.90;;
3941;SDS011;1985;48.592;8.850;2023-04-25T03:27:56;10.68;;;2.97;;
3941;SDS011;1985;48.592;8.850;2023-04-25T03:30:22;12.20;;;3.00;;
3941;SDS011;1985;48.592;8.850;2023-04-25T03:32:47;13.23;;;3.00;;
3941;SDS011;1985;48.592;8.850;2023-04-25T03:35:13;9.93;;;2.73;;
3941;SDS011;1985;48.592;8.850;2023-04-25T03:37:39;11.87;;;2.93;;
3941;SDS011;1985;48.592;8.850;2023-04-25T03:40:05;9.03;;;2.37;;
3941;SDS011;1985;48.592;8.850;2023-04-25T03:42:31;9.57;;;2.72;;
3941;SDS011;1985;48.592;8.850;2023-04-25T03:44:57;12.57;;;2.60;;
3941;SDS011;1985;48.592;8.850;2023-04-25T03:47:22;9.52;;;2.30;;
3941;SDS011;1985;48.592;8.850;2023-04-25T03:49:48;9.90;;;2.57;;
3941;SDS011;1985;48.592;8.850;2023-04-25T03:52:19;10.50;;;2.73;;
3941;SDS011;1985;48.592;8.850;2023-04-25T03:54:44;10.70;;;2.20;;
3941;SDS011;1985;48.592;8.850;2023-04-25T03:57:10;9.27;;;1.93;;
3941;SDS011;1985;48.592;8.850;2023-04-25T03:59:36;9.75;;;2.45;;
3941;SDS011;1985;48.592;8.850;2023-04-25T04:02:01;10.20;;;2.60;;
3941;SDS011;1985;48.592;8.850;2023-04-25T04:04:27;9.93;;;2.70;;
3941;SDS011;1985;48.592;8.850;2023-04-25T04:06:52;9.80;;;2.30;;
3941;SDS011;1985;48.592;8.850;2023-04-25T04:09:18;9.70;;;2.30;;
3941;SDS011;1985;48.592;8.850;2023-04-25T04:11:45;10.85;;;2.30;;
3941;SDS011;1985;48.592;8.850;2023-04-25T04:14:10;8.90;;;2.10;;
3941;SDS011;1985;48.592;8.850;2023-04-25T04:16:36;12.80;;;2.47;;
3941;SDS011;1985;48.592;8.850;2023-04-25T04:19:02;9.30;;;2.10;;
3941;SDS011;1985;48.592;8.850;2023-04-25T04:21:28;9.30;;;2.40;;
3941;SDS011;1985;48.592;8.850;2023-04-25T04:23:53;12.18;;;2.55;;
3941;SDS011;1985;48.592;8.850;2023-04-25T04:26:19;14.80;;;2.80;;
3941;SDS011;1985;48.592;8.850;2023-04-25T04:28:49;10.80;;;2.65;;
3941;SDS011;1985;48.592;8.850;2023-04-25T04:31:19;10.80;;;2.40;;
3941;SDS011;1985;48.592;8.850;2023-04-25T04:33:46;9.90;;;2.25;;
3941;SDS011;1985;48.592;8.850;2023-04-25T04:36:12;10.40;;;2.47;;
3941;SDS011;1985;48.592;8.850;2023-04-25T04:38:38;10.50;;;2.40;;
3941;SDS011;1985;48.592;8.850;2023-04-25T04:41:05;12.43;;;2.50;;
3941;SDS011;1985;48.592;8.850;2023-04-25T04:43:31;13.00;;;2.40;;
3941;SDS011;1985;48.592;8.850;2023-04-25T04:45:58;10.43;;;2.33;;
3941;SDS011;1985;48.592;8.850;2023-04-25T04:48:25;11.35;;;3.10;;
3941;SDS011;1985;48.592;8.850;2023-04-25T04:50:51;9.15;;;2.28;;
3941;SDS011;1985;48.592;8.850;2023-04-25T04:53:17;9.47;;;2.20;;
3941;SDS011;1985;48.592;8.850;2023-04-25T04:55:42;10.10;;;2.70;;
3941;SDS011;1985;48.592;8.850;2023-04-25T04:58:08;11.20;;;2.47;;
3941;SDS011;1985;48.592;8.850;2023-04-25T05:00:34;11.93;;;2.70;;
3941;SDS011;1985;48.592;8.850;2023-04-25T05:03:00;14.73;;;3.13;;
3941;SDS011;1985;48.592;8.850;2023-04-25T05:05:26;12.32;;;3.30;;
3941;SDS011;1985;48.592;8.850;2023-04-25T05:07:51;14.33;;;3.30;;
3941;SDS011;1985;48.592;8.850;2023-04-25T05:10:18;12.80;;;3.00;;
3941;SDS011;1985;48.592;8.850;2023-04-25T05:12:44;14.02;;;3.55;;
3941;SDS011;1985;48.592;8.850;2023-04-25T05:15:10;11.33;;;3.10;;
3941;SDS011;1985;48.592;8.850;2023-04-25T05:17:36;13.75;;;3.90;;
3941;SDS011;1985;48.592;8.850;2023-04-25T05:20:02;12.40;;;4.00;;
3941;SDS011;1985;48.592;8.850;2023-04-25T05:22:29;12.03;;;3.83;;
3941;SDS011;1985;48.592;8.850;2023-04-25T05:24:54;12.00;;;3.20;;
3941;SDS011;1985;48.592;8.850;2023-04-25T05:27:20;10.88;;;3.28;;
3941;SDS011;1985;48.592;8.850;2023-04-25T05:29:46;13.00;;;4.30;;
3941;SDS011;1985;48.592;8.850;2023-04-25T05:32:11;11.18;;;3.10;;
3941;SDS011;1985;48.592;8.850;2023-04-25T05:34:37;11.30;;;3.20;;
3941;SDS011;1985;48.592;8.850;2023-04-25T05:37:03;10.10;;;3.28;;
3941;SDS011;1985;48.592;8.850;2023-04-25T05:39:28;11.00;;;3.70;;
3941;SDS011;1985;48.592;8.850;2023-04-25T05:41:54;12.63;;;3.80;;
3941;SDS011;1985;48.592;8.850;2023-04-25T05:44:20;11.38;;;4.00;;
3941;SDS011;1985;48.592;8.850;2023-04-25T05:46:46;12.10;;;3.60;;
3941;SDS011;1985;48.592;8.850;2023-04-25T05:49:12;11.63;;;3.73;;
3941;SDS011;1985;48.592;8.850;2023-04-25T05:51:37;10.80;;;3.40;;
3941;SDS011;1985;48.592;8.850;2023-04-25T05:54:03;11.50;;;3.90;;
3941;SDS011;1985;48.592;8.850;2023-04-25T05:56:28;13.23;;;3.70;;
3941;SDS011;1985;48.592;8.850;2023-04-25T05:58:54;11.50;;;3.28;;
3941;SDS011;1985;48.592;8.850;2023-04-25T06:01:21;9.85;;;3.00;;
3941;SDS011;1985;48.592;8.850;2023-04-25T06:03:47;12.32;;;2.80;;
3941;SDS011;1985;48.592;8.850;2023-04-25T06:06:13;11.50;;;2.90;;
3941;SDS011;1985;48.592;8.850;2023-04-25T06:08:39;12.50;;;3.70;;
3941;SDS011;1985;48.592;8.850;2023-04-25T06:11:06;11.95;;;2.80;;
3941;SDS011;1985;48.592;8.850;2023-04-25T06:13:31;10.80;;;3.25;;
3941;SDS011;1985;48.592;8.850;2023-04-25T06:15:57;10.90;;;2.70;;
3941;SDS011;1985;48.592;8.850;2023-04-25T06:18:23;10.48;;;3.30;;
3941;SDS011;1985;48.592;8.850;2023-04-25T06:20:48;12.80;;;3.30;;
3941;SDS011;1985;48.592;8.850;2023-04-25T06:23:14;10.82;;;3.00;;
3941;SDS011;1985;48.592;8.850;2023-04-25T06:25:39;11.30;;;2.97;;
3941;SDS011;1985;48.592;8.850;2023-04-25T06:28:05;11.73;;;3.60;;
3941;SDS011;1985;48.592;8.850;2023-04-25T06:30:31;11.70;;;3.33;;
3941;SDS011;1985;48.592;8.850;2023-04-25T06:32:56;13.60;;;3.00;;
3941;SDS011;1985;48.592;8.850;2023-04-25T06:35:22;9.60;;;2.80;;
3941;SDS011;1985;48.592;8.850;2023-04-25T06:37:47;12.95;;;3.13;;
3941;SDS011;1985;48.592;8.850;2023-04-25T06:40:13;11.27;;;3.20;;
3941;SDS011;1985;48.592;8.850;2023-04-25T06:42:39;11.32;;;3.35;;
3941;SDS011;1985;48.592;8.850;2023-04-25T06:45:05;11.23;;;3.00;;
3941;SDS011;1985;48.592;8.850;2023-04-25T06:47:31;10.30;;;2.90;;
3941;SDS011;1985;48.592;8.850;2023-04-25T06:49:57;10.90;;;2.90;;
3941;SDS011;1985;48.592;8.850;2023-04-25T06:52:23;11.10;;;3.13;;
3941;SDS011;1985;48.592;8.850;2023-04-25T06:54:48;10.00;;;2.40;;
3941;SDS011;1985;48.592;8.850;2023-04-25T06:57:14;13.43;;;3.80;;
3941;SDS011;1985;48.592;8.850;2023-04-25T06:59:40;12.90;;;3.00;;
3941;SDS011;1985;48.592;8.850;2023-04-25T07:02:05;11.38;;;3.40;;
3941;SDS011;1985;48.592;8.850;2023-04-25T07:04:31;11.93;;;3.27;;
3941;SDS011;1985;48.592;8.850;2023-04-25T07:06:56;11.43;;;3.35;;
3941;SDS011;1985;48.592;8.850;2023-04-25T07:09:22;13.47;;;3.40;;
3941;SDS011;1985;48.592;8.850;2023-04-25T07:11:48;9.68;;;2.70;;
3941;SDS011;1985;48.592;8.850;2023-04-25T07:14:13;12.37;;;3.40;;
3941;SDS011;1985;48.592;8.850;2023-04-25T07:16:40;10.30;;;2.70;;
3941;SDS011;1985;48.592;8.850;2023-04-25T07:19:05;11.85;;;3.00;;
3941;SDS011;1985;48.592;8.850;2023-04-25T07:21:31;12.27;;;3.60;;
3941;SDS011;1985;48.592;8.850;2023-04-25T07:23:57;11.32;;;2.90;;
3941;SDS011;1985;48.592;8.850;2023-04-25T07:26:23;11.73;;;3.90;;
3941;SDS011;1985;48.592;8.850;2023-04-25T07:28:48;12.38;;;3.50;;
3941;SDS011;1985;48.592;8.850;2023-04-25T07:31:16;17.25;;;3.83;;
3941;SDS011;1985;48.592;8.850;2023-04-25T07:33:43;10.00;;;3.08;;
3941;SDS011;1985;48.592;8.850;2023-04-25T07:36:10;11.45;;;3.50;;
3941;SDS011;1985;48.592;8.850;2023-04-25T07:38:35;14.10;;;3.20;;
3941;SDS011;1985;48.592;8.850;2023-04-25T07:41:01;11.10;;;3.70;;
3941;SDS011;1985;48.592;8.850;2023-04-25T07:43:27;12.10;;;3.37;;
3941;SDS011;1985;48.592;8.850;2023-04-25T07:45:52;10.68;;;3.38;;
3941;SDS011;1985;48.592;8.850;2023-04-25T07:48:18;10.20;;;3.30;;
3941;SDS011;1985;48.592;8.850;2023-04-25T07:50:44;11.10;;;3.90;;
3941;SDS011;1985;48.592;8.850;2023-04-25T07:53:10;11.50;;;3.53;;
3941;SDS011;1985;48.592;8.850;2023-04-25T07:55:36;12.05;;;3.70;;
3941;SDS011;1985;48.592;8.850;2023-04-25T07:58:04;12.32;;;3.45;;
3941;SDS011;1985;48.592;8.850;2023-04-25T08:00:33;11.30;;;3.30;;
3941;SDS011;1985;48.592;8.850;2023-04-25T08:02:59;10.00;;;2.97;;
3941;SDS011;1985;48.592;8.850;2023-04-25T08:05:25;10.47;;;3.20;;
3941;SDS011;1985;48.592;8.850;2023-04-25T08:07:51;10.97;;;3.17;;
3941;SDS011;1985;48.592;8.850;2023-04-25T08:10:16;10.88;;;3.25;;
3941;SDS011;1985;48.592;8.850;2023-04-25T08:12:42;10.68;;;3.20;;
3941;SDS011;1985;48.592;8.850;2023-04-25T08:15:08;10.80;;;3.43;;
3941;SDS011;1985;48.592;8.850;2023-04-25T08:17:34;11.10;;;3.13;;
3941;SDS011;1985;48.592;8.850;2023-04-25T08:19:59;11.30;;;3.65;;
3941;SDS011;1985;48.592;8.850;2023-04-25T08:22:25;10.80;;;2.97;;
3941;SDS011;1985;48.592;8.850;2023-04-25T08:24:51;11.32;;;3.50;;
3941;SDS011;1985;48.592;8.850;2023-04-25T08:27:17;11.67;;;3.67;;
3941;SDS011;1985;48.592;8.850;2023-04-25T08:29:43;10.20;;;3.30;;
3941;SDS011;1985;48.592;8.850;2023-04-25T08:32:09;10.02;;;3.38;;
3941;SDS011;1985;48.592;8.850;2023-04-25T08:34:34;10.15;;;3.35;;
3941;SDS011;1985;48.592;8.850;2023-04-25T08:37:01;10.90;;;3.22;;
3941;SDS011;1985;48.592;8.850;2023-04-25T08:39:29;10.85;;;3.40;;
3941;SDS011;1985;48.592;8.850;2023-04-25T08:41:54;10.27;;;3.30;;
3941;SDS011;1985;48.592;8.850;2023-04-25T08:44:21;10.55;;;3.13;;
3941;SDS011;1985;48.592;8.850;2023-04-25T08:46:48;10.35;;;2.92;;
3941;SDS011;1985;48.592;8.850;2023-04-25T08:49:15;9.43;;;2.50;;
3941;SDS011;1985;48.592;8.850;2023-04-25T08:51:44;11.80;;;2.97;;
3941;SDS011;1985;48.592;8.850;2023-04-25T08:54:12;10.82;;;3.90;;
3941;SDS011;1985;48.592;8.850;2023-04-25T08:56:38;10.47;;;3.40;;
3941;SDS011;1985;48.592;8.850;2023-04-25T08:59:09;9.57;;;2.20;;
3941;SDS011;1985;48.592;8.850;2023-04-25T09:01:35;8.60;;;1.60;;
3941;SDS011;1985;48.592;8.850;2023-04-25T09:04:01;8.50;;;1.60;;
3941;SDS011;1985;48.592;8.850;2023-04-25T09:06:28;8.00;;;1.60;;
3941;SDS011;1985;48.592;8.850;2023-04-25T09:08:55;8.50;;;1.60;;
3941;SDS011;1985;48.592;8.850;2023-04-25T09:11:30;8.18;;;1.50;;
3941;SDS011;1985;48.592;8.850;2023-04-25T09:14:12;8.30;;;1.80;;
3941;SDS011;1985;48.592;8.850;2023-04-25T09:19:37;7.90;;;1.38;;
3941;SDS011;1985;48.592;8.850;2023-04-25T09:22:06;8.10;;;1.60;;
3941;SDS011;1985;48.592;8.850;2023-04-25T09:24:39;8.00;;;1.50;;
3941;SDS011;1985;48.592;8.850;2023-04-25T09:27:09;8.20;;;1.20;;
3941;SDS011;1985;48.592;8.850;2023-04-25T09:29:36;7.10;;;0.80;;
3941;SDS011;1985;48.592;8.850;2023-04-25T09:32:19;9.43;;;1.20;;
3941;SDS011;1985;48.592;8.850;2023-04-25T09:34:50;7.40;;;1.20;;
3941;SDS011;1985;48.592;8.850;2023-04-25T09:37:18;7.50;;;1.00;;
3941;SDS011;1985;48.592;8.850;2023-04-25T09:39:48;9.60;;;1.10;;
3941;SDS011;1985;48.592;8.850;2023-04-25T09:42:15;8.00;;;1.40;;
3941;SDS011;1985;48.592;8.850;2023-04-25T09:44:45;7.90;;;1.40;;
3941;SDS011;1985;48.592;8.850;2023-04-25T09:47:14;8.20;;;0.90;;
3941;SDS011;1985;48.592;8.850;2023-04-25T09:49:42;7.20;;;1.00;;
3941;SDS011;1985;48.592;8.850;2023-04-25T09:52:09;7.10;;;0.90;;
3941;SDS011;1985;48.592;8.850;2023-04-25T09:54:43;9.70;;;1.00;;
3941;SDS011;1985;48.592;8.850;2023-04-25T09:59:46;7.10;;;0.98;;
3941;SDS011;1985;48.592;8.850;2023-04-25T10:02:14;7.30;;;1.02;;
3941;SDS011;1985;48.592;8.850;2023-04-25T10:04:42;7.40;;;0.90;;
3941;SDS011;1985;48.592;8.850;2023-04-25T10:07:12;7.20;;;0.80;;
3941;SDS011;1985;48.592;8.850;2023-04-25T10:09:39;7.10;;;0.80;;
3941;SDS011;1985;48.592;8.850;2023-04-25T10:12:05;7.60;;;0.90;;
3941;SDS011;1985;48.592;8.850;2023-04-25T10:14:33;7.60;;;0.90;;
3941;SDS011;1985;48.592;8.850;2023-04-25T10:16:59;7.10;;;0.80;;
3941;SDS011;1985;48.592;8.850;2023-04-25T10:19:26;7.00;;;0.70;;
3941;SDS011;1985;48.592;8.850;2023-04-25T10:24:18;7.10;;;0.80;;
3941;SDS011;1985;48.592;8.850;2023-04-25T10:26:45;7.40;;;0.90;;
3941;SDS011;1985;48.592;8.850;2023-04-25T10:29:12;7.20;;;0.80;;
3941;SDS011;1985;48.592;8.850;2023-04-25T10:31:46;7.40;;;0.90;;
3941;SDS011;1985;48.592;8.850;2023-04-25T10:34:12;8.30;;;0.90;;
3941;SDS011;1985;48.592;8.850;2023-04-25T10:36:38;7.10;;;0.90;;
3941;SDS011;1985;48.592;8.850;2023-04-25T10:39:05;7.60;;;0.80;;
3941;SDS011;1985;48.592;8.850;2023-04-25T10:41:32;7.00;;;0.80;;
3941;SDS011;1985;48.592;8.850;2023-04-25T10:44:11;7.50;;;0.80;;
3941;SDS011;1985;48.592;8.850;2023-04-25T10:46:36;7.30;;;0.70;;
3941;SDS011;1985;48.592;8.850;2023-04-25T10:49:03;7.00;;;0.70;;
3941;SDS011;1985;48.592;8.850;2023-04-25T10:51:32;7.22;;;0.75;;
3941;SDS011;1985;48.592;8.850;2023-04-25T10:56:33;7.00;;;0.80;;
3941;SDS011;1985;48.592;8.850;2023-04-25T11:01:43;6.90;;;0.80;;
3941;SDS011;1985;48.592;8.850;2023-04-25T11:07:19;7.00;;;0.80;;
3941;SDS011;1985;48.592;8.850;2023-04-25T11:09:53;7.40;;;0.90;;
3941;SDS011;1985;48.592;8.850;2023-04-25T11:12:19;7.00;;;0.77;;
3941;SDS011;1985;48.592;8.850;2023-04-25T11:14:45;7.00;;;0.80;;
3941;SDS011;1985;48.592;8.850;2023-04-25T11:17:11;7.00;;;0.80;;
3941;SDS011;1985;48.592;8.850;2023-04-25T11:19:36;7.00;;;0.80;;
3941;SDS011;1985;48.592;8.850;2023-04-25T11:22:03;7.07;;;0.90;;
3941;SDS011;1985;48.592;8.850;2023-04-25T11:26:55;8.60;;;0.90;;
3941;SDS011;1985;48.592;8.850;2023-04-25T11:29:22;7.00;;;0.70;;
3941;SDS011;1985;48.592;8.850;2023-04-25T11:31:48;7.20;;;0.90;;
3941;SDS011;1985;48.592;8.850;2023-04-25T11:34:17;6.90;;;0.70;;
3941;SDS011;1985;48.592;8.850;2023-04-25T11:36:44;7.10;;;0.80;;
3941;SDS011;1985;48.592;8.850;2023-04-25T11:39:11;7.00;;;0.70;;
3941;SDS011;1985;48.592;8.850;2023-04-25T11:41:37;7.05;;;0.88;;
3941;SDS011;1985;48.592;8.850;2023-04-25T11:44:03;7.30;;;1.10;;
3941;SDS011;1985;48.592;8.850;2023-04-25T11:46:30;10.20;;;2.83;;
3941;SDS011;1985;48.592;8.850;2023-04-25T11:48:58;12.13;;;3.83;;
3941;SDS011;1985;48.592;8.850;2023-04-25T11:51:24;7.40;;;1.20;;
3941;SDS011;1985;48.592;8.850;2023-04-25T11:53:51;7.10;;;0.90;;
3941;SDS011;1985;48.592;8.850;2023-04-25T11:56:17;7.10;;;0.90;;
3941;SDS011;1985;48.592;8.850;2023-04-25T12:01:29;9.25;;;1.80;;
3941;SDS011;1985;48.592;8.850;2023-04-25T12:04:12;8.73;;;1.70;;
3941;SDS011;1985;48.592;8.850;2023-04-25T12:06:43;9.00;;;2.20;;
3941;SDS011;1985;48.592;8.850;2023-04-25T12:09:12;8.20;;;1.85;;
3941;SDS011;1985;48.592;8.850;2023-04-25T12:11:44;9.30;;;2.23;;
3941;SDS011;1985;48.592;8.850;2023-04-25T12:14:11;8.30;;;1.67;;
3941;SDS011;1985;48.592;8.850;2023-04-25T12:16:44;8.85;;;2.10;;
3941;SDS011;1985;48.592;8.850;2023-04-25T12:19:15;9.23;;;1.90;;
3941;SDS011;1985;48.592;8.850;2023-04-25T12:21:41;8.90;;;2.50;;
3941;SDS011;1985;48.592;8.850;2023-04-25T12:29:19;8.68;;;2.10;;
3941;SDS011;1985;48.592;8.850;2023-04-25T12:31:47;10.27;;;2.50;;
3941;SDS011;1985;48.592;8.850;2023-04-25T12:34:13;9.00;;;2.40;;
3941;SDS011;1985;48.592;8.850;2023-04-25T12:36:39;9.40;;;2.50;;
3941;SDS011;1985;48.592;8.850;2023-04-25T12:39:05;9.23;;;1.90;;
3941;SDS011;1985;48.592;8.850;2023-04-25T12:41:31;10.50;;;2.00;;
3941;SDS011;1985;48.592;8.850;2023-04-25T12:43:57;8.33;;;1.90;;
3941;SDS011;1985;48.592;8.850;2023-04-25T12:46:23;8.80;;;2.30;;
3941;SDS011;1985;48.592;8.850;2023-04-25T12:48:48;8.70;;;2.10;;
3941;SDS011;1985;48.592;8.850;2023-04-25T12:51:14;8.27;;;1.80;;
3941;SDS011;1985;48.592;8.850;2023-04-25T12:53:40;10.02;;;2.08;;
3941;SDS011;1985;48.592;8.850;2023-04-25T12:56:09;8.88;;;1.95;;
3941;SDS011;1985;48.592;8.850;2023-04-25T12:58:35;8.73;;;2.30;;
3941;SDS011;1985;48.592;8.850;2023-04-25T13:01:00;9.20;;;2.10;;
3941;SDS011;1985;48.592;8.850;2023-04-25T13:03:26;10.00;;;2.20;;
3941;SDS011;1985;48.592;8.850;2023-04-25T13:05:52;8.97;;;2.30;;
3941;SDS011;1985;48.592;8.850;2023-04-25T13:08:20;10.30;;;3.10;;
3941;SDS011;1985;48.592;8.850;2023-04-25T13:10:49;9.60;;;2.50;;
3941;SDS011;1985;48.592;8.850;2023-04-25T13:13:15;9.40;;;2.50;;
3941;SDS011;1985;48.592;8.850;2023-04-25T13:15:41;8.98;;;1.75;;
3941;SDS011;1985;48.592;8.850;2023-04-25T13:18:07;8.80;;;2.07;;
3941;SDS011;1985;48.592;8.850;2023-04-25T13:20:33;9.05;;;2.25;;
3941;SDS011;1985;48.592;8.850;2023-04-25T13:22:58;9.33;;;2.40;;
3941;SDS011;1985;48.592;8.850;2023-04-25T13:25:24;10.30;;;3.03;;
3941;SDS011;1985;48.592;8.850;2023-04-25T13:27:50;9.38;;;2.53;;
3941;SDS011;1985;48.592;8.850;2023-04-25T13:30:17;8.75;;;2.22;;
3941;SDS011;1985;48.592;8.850;2023-04-25T13:32:43;8.57;;;1.93;;
3941;SDS011;1985;48.592;8.850;2023-04-25T13:35:10;8.90;;;1.90;;
3941;SDS011;1985;48.592;8.850;2023-04-25T13:37:37;8.95;;;2.10;;
3941;SDS011;1985;48.592;8.850;2023-04-25T13:40:04;11.32;;;3.35;;
3941;SDS011;1985;48.592;8.850;2023-04-25T13:42:34;8.00;;;1.40;;
3941;SDS011;1985;48.592;8.850;2023-04-25T13:45:01;11.40;;;3.27;;
3941;SDS011;1985;48.592;8.850;2023-04-25T13:47:26;9.27;;;2.28;;
3941;SDS011;1985;48.592;8.850;2023-04-25T13:49:52;9.50;;;2.50;;
3941;SDS011;1985;48.592;8.850;2023-04-25T13:52:19;9.23;;;2.30;;
3941;SDS011;1985;48.592;8.850;2023-04-25T13:54:49;10.80;;;2.90;;
3941;SDS011;1985;48.592;8.850;2023-04-25T13:57:14;13.70;;;3.60;;
3941;SDS011;1985;48.592;8.850;2023-04-25T13:59:41;13.73;;;5.43;;
3941;SDS011;1985;48.592;8.850;2023-04-25T14:02:09;9.98;;;2.70;;
3941;SDS011;1985;48.592;8.850;2023-04-25T14:04:35;9.27;;;2.40;;
3941;SDS011;1985;48.592;8.850;2023-04-25T14:07:00;8.60;;;2.03;;
3941;SDS011;1985;48.592;8.850;2023-04-25T14:09:27;9.10;;;2.30;;
3941;SDS011;1985;48.592;8.850;2023-04-25T14:11:53;9.20;;;2.40;;
3941;SDS011;1985;48.592;8.850;2023-04-25T14:14:20;9.57;;;2.80;;
3941;SDS011;1985;48.592;8.850;2023-04-25T14:16:47;10.07;;;2.40;;
3941;SDS011;1985;48.592;8.850;2023-04-25T14:19:14;9.60;;;2.42;;
3941;SDS011;1985;48.592;8.850;2023-04-25T14:21:40;10.43;;;2.50;;
3941;SDS011;1985;48.592;8.850;2023-04-25T14:24:06;9.55;;;2.92;;
3941;SDS011;1985;48.592;8.850;2023-04-25T14:26:33;9.32;;;2.60;;
3941;SDS011;1985;48.592;8.850;2023-04-25T14:29:00;10.80;;;2.90;;
3941;SDS011;1985;48.592;8.850;2023-04-25T14:31:26;9.60;;;2.90;;
3941;SDS011;1985;48.592;8.850;2023-04-25T14:33:52;9.93;;;2.47;;
3941;SDS011;1985;48.592;8.850;2023-04-25T14:36:18;9.82;;;3.05;;
3941;SDS011;1985;48.592;8.850;2023-04-25T14:38:43;9.95;;;3.00;;
3941;SDS011;1985;48.592;8.850;2023-04-25T14:41:09;9.00;;;2.37;;
3941;SDS011;1985;48.592;8.850;2023-04-25T14:43:35;8.93;;;2.40;;
3941;SDS011;1985;48.592;8.850;2023-04-25T14:46:02;8.80;;;2.17;;
3941;SDS011;1985;48.592;8.850;2023-04-25T14:48:28;9.13;;;2.30;;
3941;SDS011;1985;48.592;8.850;2023-04-25T14:50:54;11.15;;;2.60;;
3941;SDS011;1985;48.592;8.850;2023-04-25T14:53:21;9.20;;;1.80;;
3941;SDS011;1985;48.592;8.850;2023-04-25T14:55:48;10.18;;;2.25;;
3941;SDS011;1985;48.592;8.850;2023-04-25T14:58:14;9.82;;;2.20;;
3941;SDS011;1985;48.592;8.850;2023-04-25T15:00:40;8.73;;;2.20;;
3941;SDS011;1985;48.592;8.850;2023-04-25T15:03:06;9.00;;;2.25;;
3941;SDS011;1985;48.592;8.850;2023-04-25T15:05:32;9.00;;;2.20;;
3941;SDS011;1985;48.592;8.850;2023-04-25T15:07:59;8.93;;;1.98;;
3941;SDS011;1985;48.592;8.850;2023-04-25T15:10:25;11.45;;;2.17;;
3941;SDS011;1985;48.592;8.850;2023-04-25T15:12:51;9.00;;;2.10;;
3941;SDS011;1985;48.592;8.850;2023-04-25T15:15:18;9.00;;;2.00;;
3941;SDS011;1985;48.592;8.850;2023-04-25T15:17:44;8.40;;;1.93;;
3941;SDS011;1985;48.592;8.850;2023-04-25T15:20:10;8.30;;;1.60;;
3941;SDS011;1985;48.592;8.850;2023-04-25T15:22:41;9.48;;;1.60;;
3941;SDS011;1985;48.592;8.850;2023-04-25T15:25:08;8.30;;;1.80;;
3941;SDS011;1985;48.592;8.850;2023-04-25T15:27:34;7.82;;;1.30;;
3941;SDS011;1985;48.592;8.850;2023-04-25T15:30:05;8.10;;;1.60;;
3941;SDS011;1985;48.592;8.850;2023-04-25T15:32:32;8.55;;;1.92;;